sensor_id;sensor_type;location;lat;lon;timestamp;P1;durP1;ratioP1;P2;durP2;ratioP2
33150;SDS011;19508;42.578;23.416;2023-03-14T00:00:31;14.43;;;6.55;;
33150;SDS011;19508;42.578;23.416;2023-03-14T00:02:56;12.10;;;6.43;;
33150;SDS011;19508;42.578;23.416;2023-03-14T00:05:22;11.18;;;6.43;;
33150;SDS011;19508;42.578;23.416;2023-03-14T00:07:47;12.18;;;6.03;;
33150;SDS011;19508;42.578;23.416;2023-03-14T00:10:13;11.68;;;6.25;;
33150;SDS011;19508;42.578;23.416;2023-03-14T00:12:40;11.15;;;5.68;;
33150;SDS011;19508;42.578;23.416;2023-03-14T00:15:06;16.35;;;6.75;;
33150;SDS011;19508;42.578;23.416;2023-03-14T00:17:33;14.00;;;6.38;;
33150;SDS011;19508;42.578;23.416;2023-03-14T00:19:59;15.18;;;7.45;;
33150;SDS011;19508;42.578;23.416;2023-03-14T00:22:31;14.20;;;7.03;;
33150;SDS011;19508;42.578;23.416;2023-03-14T00:24:56;14.57;;;6.90;;
33150;SDS011;19508;42.578;23.416;2023-03-14T00:27:22;19.10;;;8.45;;
33150;SDS011;19508;42.578;23.416;2023-03-14T00:29:47;13.00;;;7.03;;
33150;SDS011;19508;42.578;23.416;2023-03-14T00:32:13;14.02;;;6.78;;
33150;SDS011;19508;42.578;23.416;2023-03-14T00:34:38;15.68;;;6.75;;
33150;SDS011;19508;42.578;23.416;2023-03-14T00:37:05;12.38;;;6.88;;
33150;SDS011;19508;42.578;23.416;2023-03-14T00:39:30;13.65;;;6.75;;
33150;SDS011;19508;42.578;23.416;2023-03-14T00:41:56;20.38;;;7.88;;
33150;SDS011;19508;42.578;23.416;2023-03-14T00:44:21;15.77;;;7.45;;
33150;SDS011;19508;42.578;23.416;2023-03-14T00:46:47;13.85;;;6.68;;
33150;SDS011;19508;42.578;23.416;2023-03-14T00:49:12;15.27;;;6.93;;
33150;SDS011;19508;42.578;23.416;2023-03-14T00:51:37;11.15;;;4.38;;
33150;SDS011;19508;42.578;23.416;2023-03-14T00:54:03;16.48;;;6.07;;
33150;SDS011;19508;42.578;23.416;2023-03-14T00:56:28;16.17;;;6.25;;
33150;SDS011;19508;42.578;23.416;2023-03-14T00:58:54;13.50;;;6.22;;
33150;SDS011;19508;42.578;23.416;2023-03-14T01:01:20;23.63;;;12.57;;
33150;SDS011;19508;42.578;23.416;2023-03-14T01:03:46;13.52;;;7.20;;
33150;SDS011;19508;42.578;23.416;2023-03-14T01:06:13;15.30;;;6.68;;
33150;SDS011;19508;42.578;23.416;2023-03-14T01:08:43;11.77;;;5.13;;
33150;SDS011;19508;42.578;23.416;2023-03-14T01:11:15;13.95;;;6.95;;
33150;SDS011;19508;42.578;23.416;2023-03-14T01:13:42;19.98;;;7.40;;
33150;SDS011;19508;42.578;23.416;2023-03-14T01:16:09;12.25;;;6.80;;
33150;SDS011;19508;42.578;23.416;2023-03-14T01:18:35;11.65;;;5.80;;
33150;SDS011;19508;42.578;23.416;2023-03-14T01:21:03;19.95;;;7.78;;
33150;SDS011;19508;42.578;23.416;2023-03-14T01:25:59;13.98;;;6.43;;
33150;SDS011;19508;42.578;23.416;2023-03-14T01:28:25;13.55;;;5.90;;
33150;SDS011;19508;42.578;23.416;2023-03-14T01:30:50;15.07;;;6.05;;
33150;SDS011;19508;42.578;23.416;2023-03-14T01:33:15;16.40;;;6.78;;
33150;SDS011;19508;42.578;23.416;2023-03-14T01:35:41;12.50;;;6.55;;
33150;SDS011;19508;42.578;23.416;2023-03-14T01:38:06;15.23;;;6.70;;
33150;SDS011;19508;42.578;23.416;2023-03-14T01:40:32;16.20;;;6.72;;
33150;SDS011;19508;42.578;23.416;2023-03-14T01:42:57;11.38;;;5.63;;
33150;SDS011;19508;42.578;23.416;2023-03-14T01:48:23;12.30;;;5.90;;
33150;SDS011;19508;42.578;23.416;2023-03-14T01:50:56;11.20;;;5.47;;
33150;SDS011;19508;42.578;23.416;2023-03-14T01:53:22;11.93;;;5.93;;
33150;SDS011;19508;42.578;23.416;2023-03-14T01:55:50;11.35;;;5.72;;
33150;SDS011;19508;42.578;23.416;2023-03-14T01:58:21;9.52;;;5.57;;
33150;SDS011;19508;42.578;23.416;2023-03-14T02:00:50;22.27;;;6.55;;
33150;SDS011;19508;42.578;23.416;2023-03-14T02:03:16;10.98;;;6.05;;
33150;SDS011;19508;42.578;23.416;2023-03-14T02:05:42;10.15;;;5.13;;
33150;SDS011;19508;42.578;23.416;2023-03-14T02:08:13;9.77;;;4.43;;
33150;SDS011;19508;42.578;23.416;2023-03-14T02:10:45;14.43;;;6.05;;
33150;SDS011;19508;42.578;23.416;2023-03-14T02:13:14;18.80;;;6.20;;
33150;SDS011;19508;42.578;23.416;2023-03-14T02:15:42;14.48;;;6.82;;
33150;SDS011;19508;42.578;23.416;2023-03-14T02:18:07;15.25;;;5.97;;
33150;SDS011;19508;42.578;23.416;2023-03-14T02:23:03;20.52;;;7.13;;
33150;SDS011;19508;42.578;23.416;2023-03-14T02:28:09;16.25;;;6.72;;
33150;SDS011;19508;42.578;23.416;2023-03-14T02:30:35;14.02;;;6.38;;
33150;SDS011;19508;42.578;23.416;2023-03-14T02:33:05;14.82;;;7.75;;
33150;SDS011;19508;42.578;23.416;2023-03-14T02:35:58;12.93;;;6.75;;
33150;SDS011;19508;42.578;23.416;2023-03-14T02:38:28;15.50;;;7.35;;
33150;SDS011;19508;42.578;23.416;2023-03-14T02:40:55;17.33;;;8.65;;
33150;SDS011;19508;42.578;23.416;2023-03-14T02:43:20;14.85;;;7.35;;
33150;SDS011;19508;42.578;23.416;2023-03-14T02:45:49;11.70;;;6.40;;
33150;SDS011;19508;42.578;23.416;2023-03-14T02:48:18;11.15;;;6.60;;
33150;SDS011;19508;42.578;23.416;2023-03-14T02:50:45;15.20;;;7.50;;
33150;SDS011;19508;42.578;23.416;2023-03-14T02:53:14;15.25;;;7.15;;
33150;SDS011;19508;42.578;23.416;2023-03-14T02:55:47;12.18;;;6.82;;
33150;SDS011;19508;42.578;23.416;2023-03-14T02:58:13;11.55;;;6.38;;
33150;SDS011;19508;42.578;23.416;2023-03-14T03:00:38;16.40;;;6.35;;
33150;SDS011;19508;42.578;23.416;2023-03-14T03:03:04;25.42;;;7.72;;
33150;SDS011;19508;42.578;23.416;2023-03-14T03:05:31;16.00;;;5.80;;
33150;SDS011;19508;42.578;23.416;2023-03-14T03:07:57;12.63;;;6.65;;
33150;SDS011;19508;42.578;23.416;2023-03-14T03:10:23;13.38;;;7.03;;
33150;SDS011;19508;42.578;23.416;2023-03-14T03:12:48;19.42;;;7.07;;
33150;SDS011;19508;42.578;23.416;2023-03-14T03:15:14;11.20;;;6.60;;
33150;SDS011;19508;42.578;23.416;2023-03-14T03:17:39;12.68;;;7.03;;
33150;SDS011;19508;42.578;23.416;2023-03-14T03:20:05;15.23;;;6.75;;
33150;SDS011;19508;42.578;23.416;2023-03-14T03:22:34;16.77;;;7.70;;
33150;SDS011;19508;42.578;23.416;2023-03-14T03:25:01;11.50;;;6.72;;
33150;SDS011;19508;42.578;23.416;2023-03-14T03:27:26;13.48;;;7.28;;
33150;SDS011;19508;42.578;23.416;2023-03-14T03:29:52;17.30;;;7.47;;
33150;SDS011;19508;42.578;23.416;2023-03-14T03:32:17;16.92;;;7.15;;
33150;SDS011;19508;42.578;23.416;2023-03-14T03:34:42;15.95;;;7.07;;
33150;SDS011;19508;42.578;23.416;2023-03-14T03:37:08;22.50;;;7.80;;
33150;SDS011;19508;42.578;23.416;2023-03-14T03:39:33;14.18;;;6.88;;
33150;SDS011;19508;42.578;23.416;2023-03-14T03:41:59;12.52;;;6.55;;
33150;SDS011;19508;42.578;23.416;2023-03-14T03:44:24;13.68;;;6.70;;
33150;SDS011;19508;42.578;23.416;2023-03-14T03:46:49;14.10;;;6.00;;
33150;SDS011;19508;42.578;23.416;2023-03-14T03:49:15;12.07;;;6.38;;
33150;SDS011;19508;42.578;23.416;2023-03-14T03:51:40;14.50;;;6.90;;
33150;SDS011;19508;42.578;23.416;2023-03-14T03:54:06;26.35;;;8.80;;
33150;SDS011;19508;42.578;23.416;2023-03-14T03:56:31;49.30;;;15.75;;
33150;SDS011;19508;42.578;23.416;2023-03-14T03:58:56;18.45;;;7.57;;
33150;SDS011;19508;42.578;23.416;2023-03-14T04:01:22;16.63;;;7.28;;
33150;SDS011;19508;42.578;23.416;2023-03-14T04:03:47;41.28;;;12.55;;
33150;SDS011;19508;42.578;23.416;2023-03-14T04:06:13;20.20;;;8.40;;
33150;SDS011;19508;42.578;23.416;2023-03-14T04:08:39;82.05;;;23.88;;
33150;SDS011;19508;42.578;23.416;2023-03-14T04:11:08;121.53;;;34.42;;
33150;SDS011;19508;42.578;23.416;2023-03-14T04:13:34;56.95;;;17.27;;
33150;SDS011;19508;42.578;23.416;2023-03-14T04:15:59;20.55;;;6.72;;
33150;SDS011;19508;42.578;23.416;2023-03-14T04:18:25;20.05;;;6.95;;
33150;SDS011;19508;42.578;23.416;2023-03-14T04:20:54;22.10;;;7.28;;
33150;SDS011;19508;42.578;23.416;2023-03-14T04:23:21;18.40;;;7.00;;
33150;SDS011;19508;42.578;23.416;2023-03-14T04:25:49;22.45;;;10.60;;
33150;SDS011;19508;42.578;23.416;2023-03-14T04:28:15;32.95;;;10.95;;
33150;SDS011;19508;42.578;23.416;2023-03-14T04:30:41;30.80;;;13.00;;
33150;SDS011;19508;42.578;23.416;2023-03-14T04:33:07;37.28;;;13.80;;
33150;SDS011;19508;42.578;23.416;2023-03-14T04:35:32;44.45;;;12.80;;
33150;SDS011;19508;42.578;23.416;2023-03-14T04:37:58;53.95;;;16.10;;
33150;SDS011;19508;42.578;23.416;2023-03-14T04:40:24;68.07;;;22.65;;
33150;SDS011;19508;42.578;23.416;2023-03-14T04:42:50;55.60;;;17.75;;
33150;SDS011;19508;42.578;23.416;2023-03-14T04:45:15;155.63;;;42.67;;
33150;SDS011;19508;42.578;23.416;2023-03-14T04:47:41;58.90;;;18.20;;
33150;SDS011;19508;42.578;23.416;2023-03-14T04:50:07;41.40;;;13.20;;
33150;SDS011;19508;42.578;23.416;2023-03-14T04:52:33;14.98;;;6.65;;
33150;SDS011;19508;42.578;23.416;2023-03-14T04:54:58;16.73;;;5.78;;
33150;SDS011;19508;42.578;23.416;2023-03-14T04:57:24;14.80;;;6.43;;
33150;SDS011;19508;42.578;23.416;2023-03-14T04:59:49;13.40;;;6.15;;
33150;SDS011;19508;42.578;23.416;2023-03-14T05:02:14;12.98;;;6.20;;
33150;SDS011;19508;42.578;23.416;2023-03-14T05:04:40;12.60;;;5.35;;
33150;SDS011;19508;42.578;23.416;2023-03-14T05:07:05;11.80;;;6.18;;
33150;SDS011;19508;42.578;23.416;2023-03-14T05:09:31;15.02;;;7.47;;
33150;SDS011;19508;42.578;23.416;2023-03-14T05:11:56;15.45;;;8.40;;
33150;SDS011;19508;42.578;23.416;2023-03-14T05:14:21;17.80;;;8.77;;
33150;SDS011;19508;42.578;23.416;2023-03-14T05:16:47;10.60;;;5.57;;
33150;SDS011;19508;42.578;23.416;2023-03-14T05:19:12;9.48;;;5.53;;
33150;SDS011;19508;42.578;23.416;2023-03-14T05:21:38;9.73;;;5.43;;
33150;SDS011;19508;42.578;23.416;2023-03-14T05:24:06;9.57;;;5.32;;
33150;SDS011;19508;42.578;23.416;2023-03-14T05:26:32;11.55;;;6.18;;
33150;SDS011;19508;42.578;23.416;2023-03-14T05:28:57;7.65;;;4.72;;
33150;SDS011;19508;42.578;23.416;2023-03-14T05:31:23;10.18;;;5.32;;
33150;SDS011;19508;42.578;23.416;2023-03-14T05:33:48;16.98;;;6.57;;
33150;SDS011;19508;42.578;23.416;2023-03-14T05:36:14;13.10;;;5.15;;
33150;SDS011;19508;42.578;23.416;2023-03-14T05:38:39;10.98;;;6.15;;
33150;SDS011;19508;42.578;23.416;2023-03-14T05:41:04;12.50;;;6.05;;
33150;SDS011;19508;42.578;23.416;2023-03-14T05:43:30;12.10;;;5.50;;
33150;SDS011;19508;42.578;23.416;2023-03-14T05:45:55;15.18;;;7.00;;
33150;SDS011;19508;42.578;23.416;2023-03-14T05:48:21;11.02;;;6.43;;
33150;SDS011;19508;42.578;23.416;2023-03-14T05:50:47;10.35;;;5.40;;
33150;SDS011;19508;42.578;23.416;2023-03-14T05:53:13;13.75;;;5.95;;
33150;SDS011;19508;42.578;23.416;2023-03-14T05:55:39;24.27;;;6.68;;
33150;SDS011;19508;42.578;23.416;2023-03-14T05:58:05;10.88;;;4.85;;
33150;SDS011;19508;42.578;23.416;2023-03-14T06:00:30;9.50;;;6.28;;
33150;SDS011;19508;42.578;23.416;2023-03-14T06:02:56;12.55;;;6.00;;
33150;SDS011;19508;42.578;23.416;2023-03-14T06:05:21;11.32;;;6.18;;
33150;SDS011;19508;42.578;23.416;2023-03-14T06:07:46;9.48;;;5.85;;
33150;SDS011;19508;42.578;23.416;2023-03-14T06:10:12;12.95;;;6.53;;
33150;SDS011;19508;42.578;23.416;2023-03-14T06:12:37;12.10;;;5.90;;
33150;SDS011;19508;42.578;23.416;2023-03-14T06:15:03;9.85;;;5.75;;
33150;SDS011;19508;42.578;23.416;2023-03-14T06:17:28;12.80;;;5.97;;
33150;SDS011;19508;42.578;23.416;2023-03-14T06:19:54;10.57;;;6.20;;
33150;SDS011;19508;42.578;23.416;2023-03-14T06:22:19;13.13;;;6.40;;
33150;SDS011;19508;42.578;23.416;2023-03-14T06:24:45;21.10;;;11.07;;
33150;SDS011;19508;42.578;23.416;2023-03-14T06:27:10;10.93;;;5.93;;
33150;SDS011;19508;42.578;23.416;2023-03-14T06:29:36;11.15;;;6.68;;
33150;SDS011;19508;42.578;23.416;2023-03-14T06:32:01;13.00;;;5.93;;
33150;SDS011;19508;42.578;23.416;2023-03-14T06:34:26;18.10;;;9.57;;
33150;SDS011;19508;42.578;23.416;2023-03-14T06:36:52;10.77;;;6.22;;
33150;SDS011;19508;42.578;23.416;2023-03-14T06:39:17;12.60;;;7.25;;
33150;SDS011;19508;42.578;23.416;2023-03-14T06:41:43;9.35;;;5.45;;
33150;SDS011;19508;42.578;23.416;2023-03-14T06:44:08;7.45;;;4.80;;
33150;SDS011;19508;42.578;23.416;2023-03-14T06:46:34;10.15;;;5.90;;
33150;SDS011;19508;42.578;23.416;2023-03-14T06:48:59;54.15;;;23.55;;
33150;SDS011;19508;42.578;23.416;2023-03-14T06:51:24;11.65;;;6.03;;
33150;SDS011;19508;42.578;23.416;2023-03-14T06:53:50;11.70;;;5.45;;
33150;SDS011;19508;42.578;23.416;2023-03-14T06:56:15;15.90;;;7.00;;
33150;SDS011;19508;42.578;23.416;2023-03-14T06:58:41;22.33;;;10.77;;
33150;SDS011;19508;42.578;23.416;2023-03-14T07:01:10;9.40;;;5.38;;
33150;SDS011;19508;42.578;23.416;2023-03-14T07:03:52;12.65;;;4.75;;
33150;SDS011;19508;42.578;23.416;2023-03-14T07:06:17;10.45;;;4.95;;
33150;SDS011;19508;42.578;23.416;2023-03-14T07:08:43;7.07;;;4.82;;
33150;SDS011;19508;42.578;23.416;2023-03-14T07:11:08;12.40;;;4.95;;
33150;SDS011;19508;42.578;23.416;2023-03-14T07:13:36;9.07;;;4.85;;
33150;SDS011;19508;42.578;23.416;2023-03-14T07:16:02;14.15;;;7.47;;
33150;SDS011;19508;42.578;23.416;2023-03-14T07:18:28;12.73;;;4.75;;
33150;SDS011;19508;42.578;23.416;2023-03-14T07:20:53;31.30;;;11.35;;
33150;SDS011;19508;42.578;23.416;2023-03-14T07:23:18;20.23;;;10.55;;
33150;SDS011;19508;42.578;23.416;2023-03-14T07:25:44;10.80;;;5.50;;
33150;SDS011;19508;42.578;23.416;2023-03-14T07:28:09;12.35;;;5.53;;
33150;SDS011;19508;42.578;23.416;2023-03-14T07:30:34;11.75;;;5.90;;
33150;SDS011;19508;42.578;23.416;2023-03-14T07:33:00;9.07;;;5.25;;
33150;SDS011;19508;42.578;23.416;2023-03-14T07:35:25;9.18;;;5.25;;
33150;SDS011;19508;42.578;23.416;2023-03-14T07:37:51;30.00;;;15.25;;
33150;SDS011;19508;42.578;23.416;2023-03-14T07:40:16;10.40;;;5.18;;
33150;SDS011;19508;42.578;23.416;2023-03-14T07:42:42;7.53;;;4.60;;
33150;SDS011;19508;42.578;23.416;2023-03-14T07:45:08;12.18;;;6.47;;
33150;SDS011;19508;42.578;23.416;2023-03-14T07:47:34;7.32;;;4.43;;
33150;SDS011;19508;42.578;23.416;2023-03-14T07:50:00;12.50;;;4.90;;
33150;SDS011;19508;42.578;23.416;2023-03-14T07:52:26;11.63;;;4.45;;
33150;SDS011;19508;42.578;23.416;2023-03-14T07:54:51;7.95;;;4.40;;
33150;SDS011;19508;42.578;23.416;2023-03-14T07:57:17;8.45;;;5.20;;
33150;SDS011;19508;42.578;23.416;2023-03-14T07:59:42;8.77;;;4.53;;
33150;SDS011;19508;42.578;23.416;2023-03-14T08:02:11;9.65;;;4.10;;
33150;SDS011;19508;42.578;23.416;2023-03-14T08:04:38;7.25;;;3.72;;
33150;SDS011;19508;42.578;23.416;2023-03-14T08:07:04;5.00;;;3.45;;
33150;SDS011;19508;42.578;23.416;2023-03-14T08:09:30;7.10;;;4.22;;
33150;SDS011;19508;42.578;23.416;2023-03-14T08:11:55;11.20;;;6.10;;
33150;SDS011;19508;42.578;23.416;2023-03-14T08:14:21;18.05;;;7.18;;
33150;SDS011;19508;42.578;23.416;2023-03-14T08:16:48;13.20;;;6.65;;
33150;SDS011;19508;42.578;23.416;2023-03-14T08:19:14;11.63;;;6.82;;
33150;SDS011;19508;42.578;23.416;2023-03-14T08:21:40;16.58;;;6.45;;
33150;SDS011;19508;42.578;23.416;2023-03-14T08:24:05;12.90;;;7.38;;
33150;SDS011;19508;42.578;23.416;2023-03-14T08:26:31;13.63;;;6.38;;
33150;SDS011;19508;42.578;23.416;2023-03-14T08:28:56;11.70;;;6.60;;
33150;SDS011;19508;42.578;23.416;2023-03-14T08:31:22;11.98;;;6.65;;
33150;SDS011;19508;42.578;23.416;2023-03-14T08:33:47;14.43;;;6.82;;
33150;SDS011;19508;42.578;23.416;2023-03-14T08:36:13;12.32;;;6.15;;
33150;SDS011;19508;42.578;23.416;2023-03-14T08:38:38;16.05;;;6.90;;
33150;SDS011;19508;42.578;23.416;2023-03-14T08:41:04;13.35;;;5.25;;
33150;SDS011;19508;42.578;23.416;2023-03-14T08:43:29;14.35;;;5.70;;
33150;SDS011;19508;42.578;23.416;2023-03-14T08:45:59;14.63;;;5.82;;
33150;SDS011;19508;42.578;23.416;2023-03-14T08:48:25;11.80;;;5.82;;
33150;SDS011;19508;42.578;23.416;2023-03-14T08:50:51;12.85;;;6.20;;
33150;SDS011;19508;42.578;23.416;2023-03-14T08:53:16;13.02;;;5.93;;
33150;SDS011;19508;42.578;23.416;2023-03-14T08:55:43;12.25;;;5.28;;
33150;SDS011;19508;42.578;23.416;2023-03-14T08:58:08;12.20;;;5.63;;
33150;SDS011;19508;42.578;23.416;2023-03-14T09:00:33;13.15;;;6.30;;
33150;SDS011;19508;42.578;23.416;2023-03-14T09:02:59;11.10;;;5.97;;
33150;SDS011;19508;42.578;23.416;2023-03-14T09:05:24;8.73;;;5.13;;
33150;SDS011;19508;42.578;23.416;2023-03-14T09:07:49;13.95;;;6.22;;
33150;SDS011;19508;42.578;23.416;2023-03-14T09:10:15;11.98;;;6.32;;
33150;SDS011;19508;42.578;23.416;2023-03-14T09:12:40;10.15;;;5.60;;
33150;SDS011;19508;42.578;23.416;2023-03-14T09:15:06;10.20;;;6.55;;
33150;SDS011;19508;42.578;23.416;2023-03-14T09:17:32;14.88;;;6.25;;
33150;SDS011;19508;42.578;23.416;2023-03-14T09:19:58;8.30;;;5.25;;
33150;SDS011;19508;42.578;23.416;2023-03-14T09:22:23;16.38;;;7.15;;
33150;SDS011;19508;42.578;23.416;2023-03-14T09:24:48;14.57;;;6.57;;
33150;SDS011;19508;42.578;23.416;2023-03-14T09:27:14;18.17;;;5.43;;
33150;SDS011;19508;42.578;23.416;2023-03-14T09:29:39;10.38;;;6.05;;
33150;SDS011;19508;42.578;23.416;2023-03-14T09:32:05;13.85;;;5.70;;
33150;SDS011;19508;42.578;23.416;2023-03-14T09:34:30;12.98;;;6.20;;
33150;SDS011;19508;42.578;23.416;2023-03-14T09:36:56;17.88;;;5.95;;
33150;SDS011;19508;42.578;23.416;2023-03-14T09:39:22;14.85;;;6.88;;
33150;SDS011;19508;42.578;23.416;2023-03-14T09:41:48;11.07;;;5.82;;
33150;SDS011;19508;42.578;23.416;2023-03-14T09:44:50;15.23;;;6.78;;
33150;SDS011;19508;42.578;23.416;2023-03-14T09:47:12;10.40;;;5.45;;
33150;SDS011;19508;42.578;23.416;2023-03-14T09:49:40;9.88;;;6.50;;
33150;SDS011;19508;42.578;23.416;2023-03-14T09:52:29;20.75;;;6.63;;
33150;SDS011;19508;42.578;23.416;2023-03-14T09:54:58;11.98;;;6.53;;
33150;SDS011;19508;42.578;23.416;2023-03-14T09:57:27;13.57;;;7.32;;
33150;SDS011;19508;42.578;23.416;2023-03-14T09:59:56;16.27;;;7.03;;
33150;SDS011;19508;42.578;23.416;2023-03-14T10:04:56;19.47;;;7.33;;
33150;SDS011;19508;42.578;23.416;2023-03-14T10:07:31;11.75;;;7.10;;
33150;SDS011;19508;42.578;23.416;2023-03-14T10:09:57;15.20;;;7.40;;
33150;SDS011;19508;42.578;23.416;2023-03-14T10:12:34;13.70;;;7.15;;
33150;SDS011;19508;42.578;23.416;2023-03-14T10:15:05;15.40;;;6.97;;
33150;SDS011;19508;42.578;23.416;2023-03-14T10:20:37;11.48;;;6.20;;
33150;SDS011;19508;42.578;23.416;2023-03-14T10:25:38;14.07;;;5.15;;
33150;SDS011;19508;42.578;23.416;2023-03-14T10:28:05;12.88;;;5.47;;
33150;SDS011;19508;42.578;23.416;2023-03-14T10:30:40;9.35;;;4.80;;
33150;SDS011;19508;42.578;23.416;2023-03-14T10:33:11;8.85;;;5.10;;
33150;SDS011;19508;42.578;23.416;2023-03-14T10:35:44;11.65;;;4.68;;
33150;SDS011;19508;42.578;23.416;2023-03-14T10:38:12;13.40;;;4.78;;
33150;SDS011;19508;42.578;23.416;2023-03-14T10:40:40;10.10;;;4.10;;
33150;SDS011;19508;42.578;23.416;2023-03-14T10:43:13;8.52;;;5.07;;
33150;SDS011;19508;42.578;23.416;2023-03-14T10:45:42;9.55;;;4.30;;
33150;SDS011;19508;42.578;23.416;2023-03-14T10:53:28;9.45;;;3.92;;
33150;SDS011;19508;42.578;23.416;2023-03-14T10:55:58;14.40;;;4.97;;
33150;SDS011;19508;42.578;23.416;2023-03-14T10:58:28;14.27;;;5.60;;
33150;SDS011;19508;42.578;23.416;2023-03-14T11:01:04;8.30;;;3.95;;
33150;SDS011;19508;42.578;23.416;2023-03-14T11:04:00;11.32;;;4.03;;
33150;SDS011;19508;42.578;23.416;2023-03-14T11:06:36;14.10;;;4.68;;
33150;SDS011;19508;42.578;23.416;2023-03-14T11:09:15;10.18;;;3.20;;
33150;SDS011;19508;42.578;23.416;2023-03-14T11:12:29;14.10;;;3.88;;
33150;SDS011;19508;42.578;23.416;2023-03-14T11:14:51;7.78;;;3.53;;
33150;SDS011;19508;42.578;23.416;2023-03-14T11:17:38;7.50;;;3.58;;
33150;SDS011;19508;42.578;23.416;2023-03-14T11:20:31;4.95;;;3.20;;
33150;SDS011;19508;42.578;23.416;2023-03-14T11:34:05;4.45;;;2.42;;
33150;SDS011;19508;42.578;23.416;2023-03-14T11:36:39;5.80;;;2.78;;
33150;SDS011;19508;42.578;23.416;2023-03-14T11:39:16;8.07;;;2.92;;
33150;SDS011;19508;42.578;23.416;2023-03-14T11:41:44;6.40;;;2.55;;
33150;SDS011;19508;42.578;23.416;2023-03-14T11:44:23;11.23;;;2.97;;
33150;SDS011;19508;42.578;23.416;2023-03-14T11:47:04;6.70;;;2.47;;
33150;SDS011;19508;42.578;23.416;2023-03-14T11:49:40;6.10;;;2.70;;
33150;SDS011;19508;42.578;23.416;2023-03-14T11:52:12;12.75;;;2.75;;
33150;SDS011;19508;42.578;23.416;2023-03-14T11:54:46;7.80;;;3.00;;
33150;SDS011;19508;42.578;23.416;2023-03-14T11:57:23;4.93;;;2.35;;
33150;SDS011;19508;42.578;23.416;2023-03-14T11:59:52;7.00;;;2.70;;
33150;SDS011;19508;42.578;23.416;2023-03-14T12:07:30;3.58;;;2.42;;
33150;SDS011;19508;42.578;23.416;2023-03-14T12:10:04;4.30;;;2.42;;
33150;SDS011;19508;42.578;23.416;2023-03-14T12:12:30;9.13;;;3.13;;
33150;SDS011;19508;42.578;23.416;2023-03-14T12:14:57;3.92;;;2.50;;
33150;SDS011;19508;42.578;23.416;2023-03-14T12:17:26;15.10;;;2.92;;
33150;SDS011;19508;42.578;23.416;2023-03-14T12:22:49;7.00;;;2.42;;
33150;SDS011;19508;42.578;23.416;2023-03-14T12:25:24;6.43;;;2.42;;
33150;SDS011;19508;42.578;23.416;2023-03-14T12:38:04;4.95;;;2.45;;
33150;SDS011;19508;42.578;23.416;2023-03-14T12:40:37;7.38;;;2.30;;
33150;SDS011;19508;42.578;23.416;2023-03-14T12:46:14;6.13;;;2.10;;
33150;SDS011;19508;42.578;23.416;2023-03-14T12:48:43;10.75;;;2.40;;
33150;SDS011;19508;42.578;23.416;2023-03-14T12:51:12;6.85;;;2.22;;
33150;SDS011;19508;42.578;23.416;2023-03-14T13:01:53;5.03;;;3.05;;
33150;SDS011;19508;42.578;23.416;2023-03-14T13:04:26;3.90;;;1.90;;
33150;SDS011;19508;42.578;23.416;2023-03-14T13:06:57;5.63;;;1.80;;
33150;SDS011;19508;42.578;23.416;2023-03-14T13:12:11;3.13;;;1.85;;
33150;SDS011;19508;42.578;23.416;2023-03-14T13:14:46;4.23;;;2.03;;
33150;SDS011;19508;42.578;23.416;2023-03-14T13:17:14;2.85;;;1.90;;
33150;SDS011;19508;42.578;23.416;2023-03-14T13:19:44;6.50;;;1.83;;
33150;SDS011;19508;42.578;23.416;2023-03-14T13:22:27;6.05;;;2.03;;
33150;SDS011;19508;42.578;23.416;2023-03-14T13:24:59;2.53;;;1.90;;
33150;SDS011;19508;42.578;23.416;2023-03-14T13:27:30;1.85;;;1.15;;
33150;SDS011;19508;42.578;23.416;2023-03-14T13:29:58;2.28;;;1.80;;
33150;SDS011;19508;42.578;23.416;2023-03-14T13:32:29;9.77;;;1.77;;
33150;SDS011;19508;42.578;23.416;2023-03-14T13:34:56;6.63;;;1.67;;
33150;SDS011;19508;42.578;23.416;2023-03-14T13:37:25;6.72;;;3.20;;
33150;SDS011;19508;42.578;23.416;2023-03-14T13:39:54;2.63;;;1.45;;
33150;SDS011;19508;42.578;23.416;2023-03-14T13:42:24;1.58;;;1.27;;
33150;SDS011;19508;42.578;23.416;2023-03-14T13:44:53;2.13;;;1.45;;
33150;SDS011;19508;42.578;23.416;2023-03-14T13:47:21;4.72;;;2.05;;
33150;SDS011;19508;42.578;23.416;2023-03-14T13:49:49;6.70;;;2.95;;
33150;SDS011;19508;42.578;23.416;2023-03-14T13:52:28;3.33;;;1.75;;
33150;SDS011;19508;42.578;23.416;2023-03-14T13:55:00;1.88;;;1.48;;
33150;SDS011;19508;42.578;23.416;2023-03-14T13:57:28;5.03;;;2.42;;
33150;SDS011;19508;42.578;23.416;2023-03-14T14:00:16;4.03;;;2.17;;
33150;SDS011;19508;42.578;23.416;2023-03-14T14:02:48;4.05;;;2.30;;
33150;SDS011;19508;42.578;23.416;2023-03-14T14:05:14;4.65;;;1.90;;
33150;SDS011;19508;42.578;23.416;2023-03-14T14:07:40;2.58;;;1.77;;
33150;SDS011;19508;42.578;23.416;2023-03-14T14:10:10;6.88;;;1.85;;
33150;SDS011;19508;42.578;23.416;2023-03-14T14:12:48;2.13;;;1.50;;
33150;SDS011;19508;42.578;23.416;2023-03-14T14:15:20;2.70;;;1.50;;
33150;SDS011;19508;42.578;23.416;2023-03-14T14:22:56;3.15;;;1.52;;
33150;SDS011;19508;42.578;23.416;2023-03-14T14:25:23;3.80;;;2.28;;
33150;SDS011;19508;42.578;23.416;2023-03-14T14:27:49;12.93;;;4.32;;
33150;SDS011;19508;42.578;23.416;2023-03-14T14:32:45;2.83;;;1.77;;
33150;SDS011;19508;42.578;23.416;2023-03-14T14:35:25;3.88;;;1.58;;
33150;SDS011;19508;42.578;23.416;2023-03-14T14:37:55;3.15;;;1.92;;
33150;SDS011;19508;42.578;23.416;2023-03-14T14:40:25;4.72;;;1.75;;
33150;SDS011;19508;42.578;23.416;2023-03-14T14:42:55;2.00;;;1.40;;
33150;SDS011;19508;42.578;23.416;2023-03-14T14:45:28;1.90;;;1.52;;
33150;SDS011;19508;42.578;23.416;2023-03-14T14:48:12;3.63;;;1.60;;
33150;SDS011;19508;42.578;23.416;2023-03-14T14:56:07;3.40;;;1.90;;
33150;SDS011;19508;42.578;23.416;2023-03-14T14:58:59;7.03;;;3.53;;
33150;SDS011;19508;42.578;23.416;2023-03-14T15:01:38;2.38;;;1.75;;
33150;SDS011;19508;42.578;23.416;2023-03-14T15:04:10;4.20;;;1.30;;
33150;SDS011;19508;42.578;23.416;2023-03-14T15:06:38;2.33;;;1.63;;
33150;SDS011;19508;42.578;23.416;2023-03-14T15:09:04;3.70;;;2.03;;
33150;SDS011;19508;42.578;23.416;2023-03-14T15:11:30;6.57;;;1.58;;
33150;SDS011;19508;42.578;23.416;2023-03-14T15:13:56;4.60;;;2.50;;
33150;SDS011;19508;42.578;23.416;2023-03-14T15:16:22;3.78;;;1.58;;
33150;SDS011;19508;42.578;23.416;2023-03-14T15:18:56;3.78;;;1.67;;
33150;SDS011;19508;42.578;23.416;2023-03-14T15:21:23;2.67;;;1.97;;
33150;SDS011;19508;42.578;23.416;2023-03-14T15:23:49;2.80;;;1.55;;
33150;SDS011;19508;42.578;23.416;2023-03-14T15:26:19;4.75;;;2.45;;
33150;SDS011;19508;42.578;23.416;2023-03-14T15:28:49;3.50;;;1.92;;
33150;SDS011;19508;42.578;23.416;2023-03-14T15:31:15;4.70;;;2.22;;
33150;SDS011;19508;42.578;23.416;2023-03-14T15:33:42;3.35;;;1.70;;
33150;SDS011;19508;42.578;23.416;2023-03-14T15:36:21;7.43;;;2.08;;
33150;SDS011;19508;42.578;23.416;2023-03-14T15:38:49;2.50;;;1.60;;
33150;SDS011;19508;42.578;23.416;2023-03-14T15:41:15;3.78;;;2.17;;
33150;SDS011;19508;42.578;23.416;2023-03-14T15:43:41;8.95;;;1.88;;
33150;SDS011;19508;42.578;23.416;2023-03-14T15:46:10;3.00;;;1.90;;
33150;SDS011;19508;42.578;23.416;2023-03-14T15:48:36;5.38;;;2.63;;
33150;SDS011;19508;42.578;23.416;2023-03-14T15:51:02;9.73;;;2.30;;